Terminal Aerodrome Forecast
Issued by NWS

Home | Current Version | Previous Version | Text Only | Print | Product List | Glossary On
Versions: 1 2 3 4 5 6 7 8 9 10 11 12
366
FTPA31 PHFO 121743
TAFHMK
TAF
PHMK 121743Z 1218/1318 05005KT P6SM FEW030
     FM122100 04011G18KT P6SM FEW025 SCT035
     FM130500 04008KT P6SM FEW020
      AMD NOT SKED=

USA.gov is the U.S. government's official web portal to all federal, state and local government web resources and services.